sensor_id;sensor_type;location;lat;lon;timestamp;P1;durP1;ratioP1;P2;durP2;ratioP2
39738;SDS011;25422;48.286;8.484;2023-03-01T00:00:41;40.28;;;22.58;;
39738;SDS011;25422;48.286;8.484;2023-03-01T00:03:06;42.55;;;23.48;;
39738;SDS011;25422;48.286;8.484;2023-03-01T00:05:32;46.15;;;23.90;;
39738;SDS011;25422;48.286;8.484;2023-03-01T00:07:57;47.88;;;24.38;;
39738;SDS011;25422;48.286;8.484;2023-03-01T00:10:23;53.40;;;25.60;;
39738;SDS011;25422;48.286;8.484;2023-03-01T00:12:48;40.67;;;21.63;;
39738;SDS011;25422;48.286;8.484;2023-03-01T00:15:14;39.50;;;21.15;;
39738;SDS011;25422;48.286;8.484;2023-03-01T00:17:39;45.47;;;22.67;;
39738;SDS011;25422;48.286;8.484;2023-03-01T00:20:05;42.50;;;23.02;;
39738;SDS011;25422;48.286;8.484;2023-03-01T00:22:35;45.28;;;22.92;;
39738;SDS011;25422;48.286;8.484;2023-03-01T00:25:01;40.90;;;21.30;;
39738;SDS011;25422;48.286;8.484;2023-03-01T00:27:26;42.20;;;20.65;;
39738;SDS011;25422;48.286;8.484;2023-03-01T00:29:52;42.20;;;20.60;;
39738;SDS011;25422;48.286;8.484;2023-03-01T00:32:17;39.63;;;20.98;;
39738;SDS011;25422;48.286;8.484;2023-03-01T00:34:43;54.88;;;29.85;;
39738;SDS011;25422;48.286;8.484;2023-03-01T00:37:19;61.80;;;29.98;;
39738;SDS011;25422;48.286;8.484;2023-03-01T00:39:47;55.30;;;26.73;;
39738;SDS011;25422;48.286;8.484;2023-03-01T00:42:14;45.95;;;22.83;;
39738;SDS011;25422;48.286;8.484;2023-03-01T00:44:40;41.03;;;21.52;;
39738;SDS011;25422;48.286;8.484;2023-03-01T00:47:05;43.10;;;22.10;;
39738;SDS011;25422;48.286;8.484;2023-03-01T00:49:31;43.95;;;22.80;;
39738;SDS011;25422;48.286;8.484;2023-03-01T00:51:56;42.63;;;23.95;;
39738;SDS011;25422;48.286;8.484;2023-03-01T00:54:22;70.75;;;30.42;;
39738;SDS011;25422;48.286;8.484;2023-03-01T00:56:48;79.35;;;31.98;;
39738;SDS011;25422;48.286;8.484;2023-03-01T00:59:13;52.25;;;23.98;;
39738;SDS011;25422;48.286;8.484;2023-03-01T01:01:39;44.30;;;21.95;;
39738;SDS011;25422;48.286;8.484;2023-03-01T01:04:09;40.45;;;21.83;;
39738;SDS011;25422;48.286;8.484;2023-03-01T01:06:40;42.22;;;25.65;;
39738;SDS011;25422;48.286;8.484;2023-03-01T01:09:08;53.85;;;31.10;;
39738;SDS011;25422;48.286;8.484;2023-03-01T01:11:42;57.72;;;27.88;;
39738;SDS011;25422;48.286;8.484;2023-03-01T01:14:12;67.35;;;29.17;;
39738;SDS011;25422;48.286;8.484;2023-03-01T01:16:38;54.17;;;24.95;;
39738;SDS011;25422;48.286;8.484;2023-03-01T01:19:04;43.72;;;23.13;;
39738;SDS011;25422;48.286;8.484;2023-03-01T01:21:30;42.03;;;20.40;;
39738;SDS011;25422;48.286;8.484;2023-03-01T01:23:56;42.30;;;21.88;;
39738;SDS011;25422;48.286;8.484;2023-03-01T01:26:24;62.95;;;35.85;;
39738;SDS011;25422;48.286;8.484;2023-03-01T01:28:51;100.43;;;46.45;;
39738;SDS011;25422;48.286;8.484;2023-03-01T01:31:17;67.90;;;29.98;;
39738;SDS011;25422;48.286;8.484;2023-03-01T01:33:44;64.07;;;27.30;;
39738;SDS011;25422;48.286;8.484;2023-03-01T01:36:10;63.55;;;29.00;;
39738;SDS011;25422;48.286;8.484;2023-03-01T01:38:36;53.10;;;27.90;;
39738;SDS011;25422;48.286;8.484;2023-03-01T01:41:02;61.05;;;33.95;;
39738;SDS011;25422;48.286;8.484;2023-03-01T01:43:30;56.55;;;28.92;;
39738;SDS011;25422;48.286;8.484;2023-03-01T01:46:32;67.47;;;29.45;;
39738;SDS011;25422;48.286;8.484;2023-03-01T01:49:30;59.38;;;25.95;;
39738;SDS011;25422;48.286;8.484;2023-03-01T01:51:57;60.97;;;26.00;;
39738;SDS011;25422;48.286;8.484;2023-03-01T01:54:44;75.22;;;35.40;;
39738;SDS011;25422;48.286;8.484;2023-03-01T01:57:27;55.45;;;27.80;;
39738;SDS011;25422;48.286;8.484;2023-03-01T01:59:59;71.03;;;37.15;;
39738;SDS011;25422;48.286;8.484;2023-03-01T02:02:27;114.03;;;59.10;;
39738;SDS011;25422;48.286;8.484;2023-03-01T02:04:54;111.28;;;41.33;;
39738;SDS011;25422;48.286;8.484;2023-03-01T02:07:29;113.05;;;35.72;;
39738;SDS011;25422;48.286;8.484;2023-03-01T02:09:55;103.60;;;34.95;;
39738;SDS011;25422;48.286;8.484;2023-03-01T02:12:21;93.35;;;49.65;;
39738;SDS011;25422;48.286;8.484;2023-03-01T02:14:49;85.22;;;45.65;;
39738;SDS011;25422;48.286;8.484;2023-03-01T02:17:15;49.53;;;26.40;;
39738;SDS011;25422;48.286;8.484;2023-03-01T02:22:45;110.15;;;38.45;;
39738;SDS011;25422;48.286;8.484;2023-03-01T02:30:28;95.35;;;50.55;;
39738;SDS011;25422;48.286;8.484;2023-03-01T02:32:55;67.10;;;37.95;;
39738;SDS011;25422;48.286;8.484;2023-03-01T02:35:37;54.33;;;26.35;;
39738;SDS011;25422;48.286;8.484;2023-03-01T02:38:03;85.93;;;45.85;;
39738;SDS011;25422;48.286;8.484;2023-03-01T02:40:33;62.33;;;28.27;;
39738;SDS011;25422;48.286;8.484;2023-03-01T02:43:01;74.10;;;29.33;;
39738;SDS011;25422;48.286;8.484;2023-03-01T02:45:29;53.63;;;25.40;;
39738;SDS011;25422;48.286;8.484;2023-03-01T02:47:55;69.13;;;34.58;;
39738;SDS011;25422;48.286;8.484;2023-03-01T02:50:31;61.10;;;31.58;;
39738;SDS011;25422;48.286;8.484;2023-03-01T02:53:13;49.85;;;26.35;;
39738;SDS011;25422;48.286;8.484;2023-03-01T02:55:40;50.03;;;27.33;;
39738;SDS011;25422;48.286;8.484;2023-03-01T02:58:06;51.80;;;25.17;;
39738;SDS011;25422;48.286;8.484;2023-03-01T03:00:37;71.15;;;27.77;;
39738;SDS011;25422;48.286;8.484;2023-03-01T03:03:13;62.60;;;30.70;;
39738;SDS011;25422;48.286;8.484;2023-03-01T03:05:41;54.60;;;30.60;;
39738;SDS011;25422;48.286;8.484;2023-03-01T03:08:06;58.42;;;29.83;;
39738;SDS011;25422;48.286;8.484;2023-03-01T03:10:36;48.28;;;26.77;;
39738;SDS011;25422;48.286;8.484;2023-03-01T03:13:06;51.67;;;25.85;;
39738;SDS011;25422;48.286;8.484;2023-03-01T03:15:33;63.38;;;25.23;;
39738;SDS011;25422;48.286;8.484;2023-03-01T03:18:01;60.45;;;28.40;;
39738;SDS011;25422;48.286;8.484;2023-03-01T03:20:29;54.70;;;27.02;;
39738;SDS011;25422;48.286;8.484;2023-03-01T03:22:56;50.20;;;26.77;;
39738;SDS011;25422;48.286;8.484;2023-03-01T03:25:23;87.80;;;50.13;;
39738;SDS011;25422;48.286;8.484;2023-03-01T03:27:50;58.80;;;35.72;;
39738;SDS011;25422;48.286;8.484;2023-03-01T03:30:25;58.72;;;32.90;;
39738;SDS011;25422;48.286;8.484;2023-03-01T03:32:55;62.97;;;31.13;;
39738;SDS011;25422;48.286;8.484;2023-03-01T03:35:25;85.85;;;38.35;;
39738;SDS011;25422;48.286;8.484;2023-03-01T03:37:56;65.82;;;37.65;;
39738;SDS011;25422;48.286;8.484;2023-03-01T03:40:29;60.40;;;35.20;;
39738;SDS011;25422;48.286;8.484;2023-03-01T03:43:15;53.80;;;29.35;;
39738;SDS011;25422;48.286;8.484;2023-03-01T03:45:46;52.58;;;27.45;;
39738;SDS011;25422;48.286;8.484;2023-03-01T03:48:13;53.85;;;24.73;;
39738;SDS011;25422;48.286;8.484;2023-03-01T03:50:39;82.95;;;34.88;;
39738;SDS011;25422;48.286;8.484;2023-03-01T03:53:06;75.75;;;41.17;;
39738;SDS011;25422;48.286;8.484;2023-03-01T03:55:34;59.63;;;35.20;;
39738;SDS011;25422;48.286;8.484;2023-03-01T03:58:01;95.13;;;49.35;;
39738;SDS011;25422;48.286;8.484;2023-03-01T04:00:31;107.68;;;53.65;;
39738;SDS011;25422;48.286;8.484;2023-03-01T04:02:59;57.35;;;29.83;;
39738;SDS011;25422;48.286;8.484;2023-03-01T04:05:25;49.13;;;26.95;;
39738;SDS011;25422;48.286;8.484;2023-03-01T04:07:51;125.65;;;51.97;;
39738;SDS011;25422;48.286;8.484;2023-03-01T04:10:30;62.53;;;35.42;;
39738;SDS011;25422;48.286;8.484;2023-03-01T04:12:57;93.20;;;45.58;;
39738;SDS011;25422;48.286;8.484;2023-03-01T04:15:23;76.50;;;40.55;;
39738;SDS011;25422;48.286;8.484;2023-03-01T04:17:50;80.55;;;42.88;;
39738;SDS011;25422;48.286;8.484;2023-03-01T04:20:19;94.28;;;36.63;;
39738;SDS011;25422;48.286;8.484;2023-03-01T04:22:56;79.63;;;31.15;;
39738;SDS011;25422;48.286;8.484;2023-03-01T04:25:37;79.75;;;37.85;;
39738;SDS011;25422;48.286;8.484;2023-03-01T04:28:07;100.47;;;49.97;;
39738;SDS011;25422;48.286;8.484;2023-03-01T04:30:33;54.17;;;28.77;;
39738;SDS011;25422;48.286;8.484;2023-03-01T04:33:07;66.57;;;36.72;;
39738;SDS011;25422;48.286;8.484;2023-03-01T04:35:34;78.78;;;42.92;;
39738;SDS011;25422;48.286;8.484;2023-03-01T04:38:01;50.00;;;26.05;;
39738;SDS011;25422;48.286;8.484;2023-03-01T04:40:28;52.83;;;24.80;;
39738;SDS011;25422;48.286;8.484;2023-03-01T04:42:53;140.32;;;59.47;;
39738;SDS011;25422;48.286;8.484;2023-03-01T04:45:19;55.20;;;29.63;;
39738;SDS011;25422;48.286;8.484;2023-03-01T04:47:45;44.45;;;25.50;;
39738;SDS011;25422;48.286;8.484;2023-03-01T04:50:12;52.80;;;32.00;;
39738;SDS011;25422;48.286;8.484;2023-03-01T04:52:39;59.45;;;33.78;;
39738;SDS011;25422;48.286;8.484;2023-03-01T04:55:05;68.43;;;37.22;;
39738;SDS011;25422;48.286;8.484;2023-03-01T04:57:31;46.90;;;24.17;;
39738;SDS011;25422;48.286;8.484;2023-03-01T04:59:57;45.42;;;23.80;;
39738;SDS011;25422;48.286;8.484;2023-03-01T05:02:23;63.28;;;36.67;;
39738;SDS011;25422;48.286;8.484;2023-03-01T05:04:48;54.28;;;31.65;;
39738;SDS011;25422;48.286;8.484;2023-03-01T05:07:14;65.70;;;37.90;;
39738;SDS011;25422;48.286;8.484;2023-03-01T05:09:46;48.25;;;27.05;;
39738;SDS011;25422;48.286;8.484;2023-03-01T05:12:12;45.75;;;25.13;;
39738;SDS011;25422;48.286;8.484;2023-03-01T05:14:38;48.25;;;26.65;;
39738;SDS011;25422;48.286;8.484;2023-03-01T05:17:04;85.53;;;37.80;;
39738;SDS011;25422;48.286;8.484;2023-03-01T05:19:30;51.42;;;27.20;;
39738;SDS011;25422;48.286;8.484;2023-03-01T05:21:56;55.75;;;30.95;;
39738;SDS011;25422;48.286;8.484;2023-03-01T05:24:32;70.72;;;30.65;;
39738;SDS011;25422;48.286;8.484;2023-03-01T05:26:59;74.35;;;35.88;;
39738;SDS011;25422;48.286;8.484;2023-03-01T05:29:26;65.10;;;34.03;;
39738;SDS011;25422;48.286;8.484;2023-03-01T05:31:53;52.90;;;27.70;;
39738;SDS011;25422;48.286;8.484;2023-03-01T05:34:24;50.22;;;27.17;;
39738;SDS011;25422;48.286;8.484;2023-03-01T05:36:51;56.17;;;25.52;;
39738;SDS011;25422;48.286;8.484;2023-03-01T05:39:21;62.20;;;35.35;;
39738;SDS011;25422;48.286;8.484;2023-03-01T05:41:51;59.60;;;32.80;;
39738;SDS011;25422;48.286;8.484;2023-03-01T05:44:18;53.35;;;30.40;;
39738;SDS011;25422;48.286;8.484;2023-03-01T05:46:43;55.60;;;30.88;;
39738;SDS011;25422;48.286;8.484;2023-03-01T05:49:10;49.88;;;28.27;;
39738;SDS011;25422;48.286;8.484;2023-03-01T05:51:36;59.08;;;31.75;;
39738;SDS011;25422;48.286;8.484;2023-03-01T05:54:01;47.30;;;25.77;;
39738;SDS011;25422;48.286;8.484;2023-03-01T05:56:27;47.03;;;25.58;;
39738;SDS011;25422;48.286;8.484;2023-03-01T05:58:52;49.88;;;26.40;;
39738;SDS011;25422;48.286;8.484;2023-03-01T06:01:18;70.95;;;37.17;;
39738;SDS011;25422;48.286;8.484;2023-03-01T06:03:43;47.67;;;26.40;;
39738;SDS011;25422;48.286;8.484;2023-03-01T06:06:08;49.05;;;26.65;;
39738;SDS011;25422;48.286;8.484;2023-03-01T06:08:34;58.75;;;32.45;;
39738;SDS011;25422;48.286;8.484;2023-03-01T06:10:59;47.80;;;28.48;;
39738;SDS011;25422;48.286;8.484;2023-03-01T06:13:24;55.45;;;29.42;;
39738;SDS011;25422;48.286;8.484;2023-03-01T06:15:50;56.15;;;28.63;;
39738;SDS011;25422;48.286;8.484;2023-03-01T06:18:16;53.08;;;29.52;;
39738;SDS011;25422;48.286;8.484;2023-03-01T06:20:42;54.88;;;30.17;;
39738;SDS011;25422;48.286;8.484;2023-03-01T06:23:07;66.53;;;37.03;;
39738;SDS011;25422;48.286;8.484;2023-03-01T06:25:32;51.92;;;28.25;;
39738;SDS011;25422;48.286;8.484;2023-03-01T06:27:58;56.90;;;30.42;;
39738;SDS011;25422;48.286;8.484;2023-03-01T06:30:24;52.97;;;28.88;;
39738;SDS011;25422;48.286;8.484;2023-03-01T06:32:50;46.75;;;25.67;;
39738;SDS011;25422;48.286;8.484;2023-03-01T06:35:16;55.47;;;29.55;;
39738;SDS011;25422;48.286;8.484;2023-03-01T06:37:43;55.08;;;30.60;;
39738;SDS011;25422;48.286;8.484;2023-03-01T06:40:09;54.33;;;28.92;;
39738;SDS011;25422;48.286;8.484;2023-03-01T06:42:37;49.95;;;25.40;;
39738;SDS011;25422;48.286;8.484;2023-03-01T06:45:03;49.15;;;26.90;;
39738;SDS011;25422;48.286;8.484;2023-03-01T06:47:30;48.25;;;25.45;;
39738;SDS011;25422;48.286;8.484;2023-03-01T06:49:55;50.13;;;27.63;;
39738;SDS011;25422;48.286;8.484;2023-03-01T06:52:21;53.80;;;28.15;;
39738;SDS011;25422;48.286;8.484;2023-03-01T06:54:46;56.13;;;27.17;;
39738;SDS011;25422;48.286;8.484;2023-03-01T06:57:12;52.08;;;28.50;;
39738;SDS011;25422;48.286;8.484;2023-03-01T06:59:37;44.63;;;26.33;;
39738;SDS011;25422;48.286;8.484;2023-03-01T07:02:02;49.05;;;26.73;;
39738;SDS011;25422;48.286;8.484;2023-03-01T07:04:28;66.57;;;34.22;;
39738;SDS011;25422;48.286;8.484;2023-03-01T07:06:55;185.57;;;92.15;;
39738;SDS011;25422;48.286;8.484;2023-03-01T07:09:21;71.72;;;38.80;;
39738;SDS011;25422;48.286;8.484;2023-03-01T07:11:48;88.82;;;56.50;;
39738;SDS011;25422;48.286;8.484;2023-03-01T07:14:14;58.78;;;35.30;;
39738;SDS011;25422;48.286;8.484;2023-03-01T07:16:40;53.25;;;32.83;;
39738;SDS011;25422;48.286;8.484;2023-03-01T07:19:05;52.95;;;27.60;;
39738;SDS011;25422;48.286;8.484;2023-03-01T07:21:31;49.97;;;28.05;;
39738;SDS011;25422;48.286;8.484;2023-03-01T07:23:56;46.70;;;27.65;;
39738;SDS011;25422;48.286;8.484;2023-03-01T07:26:22;47.28;;;26.92;;
39738;SDS011;25422;48.286;8.484;2023-03-01T07:28:48;50.30;;;26.13;;
39738;SDS011;25422;48.286;8.484;2023-03-01T07:31:13;50.03;;;25.13;;
39738;SDS011;25422;48.286;8.484;2023-03-01T07:33:39;43.25;;;24.70;;
39738;SDS011;25422;48.286;8.484;2023-03-01T07:36:05;46.75;;;26.05;;
39738;SDS011;25422;48.286;8.484;2023-03-01T07:38:31;48.00;;;25.30;;
39738;SDS011;25422;48.286;8.484;2023-03-01T07:41:00;45.47;;;24.38;;
39738;SDS011;25422;48.286;8.484;2023-03-01T07:43:27;50.00;;;25.85;;
39738;SDS011;25422;48.286;8.484;2023-03-01T07:45:54;45.30;;;24.77;;
39738;SDS011;25422;48.286;8.484;2023-03-01T07:48:19;51.10;;;26.98;;
39738;SDS011;25422;48.286;8.484;2023-03-01T07:50:45;47.55;;;25.20;;
39738;SDS011;25422;48.286;8.484;2023-03-01T07:53:10;54.70;;;27.80;;
39738;SDS011;25422;48.286;8.484;2023-03-01T07:55:36;49.50;;;26.55;;
39738;SDS011;25422;48.286;8.484;2023-03-01T07:58:02;48.33;;;26.40;;
39738;SDS011;25422;48.286;8.484;2023-03-01T08:00:31;52.25;;;28.67;;
39738;SDS011;25422;48.286;8.484;2023-03-01T08:02:58;53.40;;;30.45;;
39738;SDS011;25422;48.286;8.484;2023-03-01T08:05:24;50.75;;;28.30;;
39738;SDS011;25422;48.286;8.484;2023-03-01T08:07:50;46.00;;;25.17;;
39738;SDS011;25422;48.286;8.484;2023-03-01T08:10:15;48.78;;;25.90;;
39738;SDS011;25422;48.286;8.484;2023-03-01T08:12:41;50.88;;;27.25;;
39738;SDS011;25422;48.286;8.484;2023-03-01T08:15:07;48.10;;;26.33;;
39738;SDS011;25422;48.286;8.484;2023-03-01T08:17:33;47.08;;;26.63;;
39738;SDS011;25422;48.286;8.484;2023-03-01T08:19:58;43.08;;;22.95;;
39738;SDS011;25422;48.286;8.484;2023-03-01T08:22:24;45.70;;;23.25;;
39738;SDS011;25422;48.286;8.484;2023-03-01T08:24:49;45.33;;;26.73;;
39738;SDS011;25422;48.286;8.484;2023-03-01T08:27:15;49.95;;;25.90;;
39738;SDS011;25422;48.286;8.484;2023-03-01T08:29:42;47.88;;;25.42;;
39738;SDS011;25422;48.286;8.484;2023-03-01T08:32:07;45.05;;;25.23;;
39738;SDS011;25422;48.286;8.484;2023-03-01T08:34:33;46.65;;;25.20;;
39738;SDS011;25422;48.286;8.484;2023-03-01T08:37:00;43.40;;;23.50;;
39738;SDS011;25422;48.286;8.484;2023-03-01T08:39:26;41.47;;;22.98;;
39738;SDS011;25422;48.286;8.484;2023-03-01T08:41:52;46.75;;;24.77;;
39738;SDS011;25422;48.286;8.484;2023-03-01T08:44:17;46.17;;;25.05;;
39738;SDS011;25422;48.286;8.484;2023-03-01T08:46:44;45.15;;;24.45;;
39738;SDS011;25422;48.286;8.484;2023-03-01T08:49:11;64.03;;;31.67;;
39738;SDS011;25422;48.286;8.484;2023-03-01T08:51:44;45.95;;;24.98;;
39738;SDS011;25422;48.286;8.484;2023-03-01T08:54:11;47.08;;;25.42;;
39738;SDS011;25422;48.286;8.484;2023-03-01T08:56:39;48.63;;;25.42;;
39738;SDS011;25422;48.286;8.484;2023-03-01T08:59:05;41.63;;;23.80;;
39738;SDS011;25422;48.286;8.484;2023-03-01T09:01:31;40.25;;;22.63;;
39738;SDS011;25422;48.286;8.484;2023-03-01T09:03:56;42.03;;;23.70;;
39738;SDS011;25422;48.286;8.484;2023-03-01T09:06:22;44.78;;;25.63;;
39738;SDS011;25422;48.286;8.484;2023-03-01T09:08:48;54.63;;;30.98;;
39738;SDS011;25422;48.286;8.484;2023-03-01T09:11:18;66.85;;;37.13;;
39738;SDS011;25422;48.286;8.484;2023-03-01T09:13:46;44.70;;;24.83;;
39738;SDS011;25422;48.286;8.484;2023-03-01T09:16:13;45.03;;;25.23;;
39738;SDS011;25422;48.286;8.484;2023-03-01T09:18:41;46.63;;;25.33;;
39738;SDS011;25422;48.286;8.484;2023-03-01T09:21:08;44.60;;;25.27;;
39738;SDS011;25422;48.286;8.484;2023-03-01T09:23:39;40.58;;;21.30;;
39738;SDS011;25422;48.286;8.484;2023-03-01T09:26:09;43.10;;;23.58;;
39738;SDS011;25422;48.286;8.484;2023-03-01T09:28:37;38.00;;;20.00;;
39738;SDS011;25422;48.286;8.484;2023-03-01T09:31:04;42.78;;;24.27;;
39738;SDS011;25422;48.286;8.484;2023-03-01T09:33:30;43.92;;;24.20;;
39738;SDS011;25422;48.286;8.484;2023-03-01T09:35:57;40.47;;;23.25;;
39738;SDS011;25422;48.286;8.484;2023-03-01T09:38:27;42.92;;;24.50;;
39738;SDS011;25422;48.286;8.484;2023-03-01T09:40:53;37.65;;;22.33;;
39738;SDS011;25422;48.286;8.484;2023-03-01T09:43:21;41.35;;;23.58;;
39738;SDS011;25422;48.286;8.484;2023-03-01T09:45:53;36.13;;;22.50;;
39738;SDS011;25422;48.286;8.484;2023-03-01T09:48:22;43.33;;;24.35;;
39738;SDS011;25422;48.286;8.484;2023-03-01T09:50:53;40.70;;;22.90;;
39738;SDS011;25422;48.286;8.484;2023-03-01T09:53:20;41.13;;;21.92;;
39738;SDS011;25422;48.286;8.484;2023-03-01T09:55:55;44.47;;;23.48;;
39738;SDS011;25422;48.286;8.484;2023-03-01T09:58:37;41.28;;;23.58;;
39738;SDS011;25422;48.286;8.484;2023-03-01T10:01:27;48.05;;;29.25;;
39738;SDS011;25422;48.286;8.484;2023-03-01T10:09:35;36.08;;;22.52;;
39738;SDS011;25422;48.286;8.484;2023-03-01T10:12:02;39.13;;;22.30;;
39738;SDS011;25422;48.286;8.484;2023-03-01T10:17:28;41.65;;;22.35;;
39738;SDS011;25422;48.286;8.484;2023-03-01T10:20:15;46.28;;;25.83;;
39738;SDS011;25422;48.286;8.484;2023-03-01T10:22:44;38.80;;;22.52;;
39738;SDS011;25422;48.286;8.484;2023-03-01T10:25:15;39.08;;;22.73;;
39738;SDS011;25422;48.286;8.484;2023-03-01T10:27:54;37.90;;;22.85;;
39738;SDS011;25422;48.286;8.484;2023-03-01T10:30:46;36.67;;;20.47;;
39738;SDS011;25422;48.286;8.484;2023-03-01T10:33:16;35.00;;;21.08;;
39738;SDS011;25422;48.286;8.484;2023-03-01T10:35:45;37.35;;;21.42;;
39738;SDS011;25422;48.286;8.484;2023-03-01T10:38:13;35.10;;;21.40;;
39738;SDS011;25422;48.286;8.484;2023-03-01T10:40:50;42.63;;;23.67;;
39738;SDS011;25422;48.286;8.484;2023-03-01T10:43:19;38.05;;;23.08;;
39738;SDS011;25422;48.286;8.484;2023-03-01T10:45:45;40.55;;;24.13;;
39738;SDS011;25422;48.286;8.484;2023-03-01T10:48:15;35.65;;;22.88;;
39738;SDS011;25422;48.286;8.484;2023-03-01T10:50:49;42.55;;;23.52;;
39738;SDS011;25422;48.286;8.484;2023-03-01T10:56:00;34.20;;;21.52;;
39738;SDS011;25422;48.286;8.484;2023-03-01T10:58:34;31.92;;;20.38;;
39738;SDS011;25422;48.286;8.484;2023-03-01T11:01:05;34.95;;;21.25;;
39738;SDS011;25422;48.286;8.484;2023-03-01T11:04:03;38.67;;;21.40;;
39738;SDS011;25422;48.286;8.484;2023-03-01T11:06:37;33.63;;;21.27;;
39738;SDS011;25422;48.286;8.484;2023-03-01T11:09:15;37.42;;;22.17;;
39738;SDS011;25422;48.286;8.484;2023-03-01T11:11:45;34.47;;;21.55;;
39738;SDS011;25422;48.286;8.484;2023-03-01T11:14:24;46.35;;;26.90;;
39738;SDS011;25422;48.286;8.484;2023-03-01T11:19:30;39.90;;;25.13;;
39738;SDS011;25422;48.286;8.484;2023-03-01T11:22:00;38.92;;;22.58;;
39738;SDS011;25422;48.286;8.484;2023-03-01T11:24:45;34.65;;;22.17;;
39738;SDS011;25422;48.286;8.484;2023-03-01T11:27:17;34.20;;;22.67;;
39738;SDS011;25422;48.286;8.484;2023-03-01T11:30:03;35.22;;;22.35;;
39738;SDS011;25422;48.286;8.484;2023-03-01T11:35:35;34.83;;;22.90;;
39738;SDS011;25422;48.286;8.484;2023-03-01T11:38:14;29.83;;;20.25;;
39738;SDS011;25422;48.286;8.484;2023-03-01T11:40:46;33.40;;;21.65;;
39738;SDS011;25422;48.286;8.484;2023-03-01T11:52:08;37.22;;;24.85;;
39738;SDS011;25422;48.286;8.484;2023-03-01T11:55:00;36.03;;;22.70;;
39738;SDS011;25422;48.286;8.484;2023-03-01T11:57:53;29.70;;;21.38;;
39738;SDS011;25422;48.286;8.484;2023-03-01T12:06:24;39.20;;;26.05;;
39738;SDS011;25422;48.286;8.484;2023-03-01T12:23:20;30.40;;;19.77;;
39738;SDS011;25422;48.286;8.484;2023-03-01T12:26:02;30.08;;;21.55;;
39738;SDS011;25422;48.286;8.484;2023-03-01T12:34:06;31.20;;;22.92;;
39738;SDS011;25422;48.286;8.484;2023-03-01T12:39:22;30.98;;;21.25;;
39738;SDS011;25422;48.286;8.484;2023-03-01T12:50:50;29.02;;;19.30;;
39738;SDS011;25422;48.286;8.484;2023-03-01T12:55:55;29.67;;;21.15;;
39738;SDS011;25422;48.286;8.484;2023-03-01T12:58:32;27.25;;;19.70;;
39738;SDS011;25422;48.286;8.484;2023-03-01T13:01:22;29.13;;;19.90;;
39738;SDS011;25422;48.286;8.484;2023-03-01T13:04:02;24.95;;;17.77;;
39738;SDS011;25422;48.286;8.484;2023-03-01T13:07:12;23.95;;;18.50;;
39738;SDS011;25422;48.286;8.484;2023-03-01T13:18:27;29.42;;;19.38;;
39738;SDS011;25422;48.286;8.484;2023-03-01T13:20:51;28.38;;;20.73;;
39738;SDS011;25422;48.286;8.484;2023-03-01T13:26:02;35.30;;;23.90;;
39738;SDS011;25422;48.286;8.484;2023-03-01T13:33:49;34.75;;;21.73;;
39738;SDS011;25422;48.286;8.484;2023-03-01T13:44:50;42.08;;;25.00;;
39738;SDS011;25422;48.286;8.484;2023-03-01T13:47:08;34.58;;;21.55;;
39738;SDS011;25422;48.286;8.484;2023-03-01T13:52:40;38.75;;;20.30;;
39738;SDS011;25422;48.286;8.484;2023-03-01T13:57:40;30.67;;;20.02;;
39738;SDS011;25422;48.286;8.484;2023-03-01T14:03:04;31.80;;;20.38;;
39738;SDS011;25422;48.286;8.484;2023-03-01T14:05:30;33.45;;;21.75;;
39738;SDS011;25422;48.286;8.484;2023-03-01T14:07:56;60.75;;;26.52;;
39738;SDS011;25422;48.286;8.484;2023-03-01T14:10:22;32.88;;;20.20;;
39738;SDS011;25422;48.286;8.484;2023-03-01T14:15:42;29.85;;;18.65;;
39738;SDS011;25422;48.286;8.484;2023-03-01T14:18:20;33.83;;;20.88;;
39738;SDS011;25422;48.286;8.484;2023-03-01T14:20:54;34.72;;;20.17;;
39738;SDS011;25422;48.286;8.484;2023-03-01T14:23:20;29.52;;;19.08;;
39738;SDS011;25422;48.286;8.484;2023-03-01T14:25:51;32.63;;;20.38;;
39738;SDS011;25422;48.286;8.484;2023-03-01T14:30:53;26.02;;;16.50;;
39738;SDS011;25422;48.286;8.484;2023-03-01T14:33:24;28.08;;;17.50;;
39738;SDS011;25422;48.286;8.484;2023-03-01T14:38:32;32.38;;;21.02;;
39738;SDS011;25422;48.286;8.484;2023-03-01T14:43:40;27.58;;;18.73;;
39738;SDS011;25422;48.286;8.484;2023-03-01T14:46:21;31.17;;;19.38;;
39738;SDS011;25422;48.286;8.484;2023-03-01T14:48:51;26.10;;;17.80;;
39738;SDS011;25422;48.286;8.484;2023-03-01T14:51:20;28.60;;;16.88;;
39738;SDS011;25422;48.286;8.484;2023-03-01T14:53:46;25.08;;;16.70;;
39738;SDS011;25422;48.286;8.484;2023-03-01T14:56:13;31.13;;;18.85;;
39738;SDS011;25422;48.286;8.484;2023-03-01T14:58:40;28.90;;;17.98;;
39738;SDS011;25422;48.286;8.484;2023-03-01T15:01:05;34.40;;;19.90;;
39738;SDS011;25422;48.286;8.484;2023-03-01T15:03:34;33.17;;;19.90;;
39738;SDS011;25422;48.286;8.484;2023-03-01T15:06:02;30.63;;;17.02;;
39738;SDS011;25422;48.286;8.484;2023-03-01T15:08:29;26.10;;;16.00;;
39738;SDS011;25422;48.286;8.484;2023-03-01T15:10:59;25.57;;;16.53;;
39738;SDS011;25422;48.286;8.484;2023-03-01T15:13:43;32.58;;;18.00;;
39738;SDS011;25422;48.286;8.484;2023-03-01T15:19:04;41.15;;;22.92;;
39738;SDS011;25422;48.286;8.484;2023-03-01T15:21:32;36.77;;;22.67;;
39738;SDS011;25422;48.286;8.484;2023-03-01T15:24:22;30.10;;;18.92;;
39738;SDS011;25422;48.286;8.484;2023-03-01T15:26:51;32.85;;;18.80;;
39738;SDS011;25422;48.286;8.484;2023-03-01T15:29:21;31.42;;;19.88;;
39738;SDS011;25422;48.286;8.484;2023-03-01T15:31:56;35.90;;;21.23;;
39738;SDS011;25422;48.286;8.484;2023-03-01T15:34:30;29.67;;;19.23;;
39738;SDS011;25422;48.286;8.484;2023-03-01T15:36:58;32.83;;;19.90;;
39738;SDS011;25422;48.286;8.484;2023-03-01T15:42:13;34.20;;;20.58;;
39738;SDS011;25422;48.286;8.484;2023-03-01T15:45:08;34.40;;;21.02;;
39738;SDS011;25422;48.286;8.484;2023-03-01T15:47:33;33.50;;;22.10;;
39738;SDS011;25422;48.286;8.484;2023-03-01T15:50:01;29.73;;;19.17;;
39738;SDS011;25422;48.286;8.484;2023-03-01T15:52:29;37.90;;;22.77;;
39738;SDS011;25422;48.286;8.484;2023-03-01T15:55:03;29.48;;;18.10;;
39738;SDS011;25422;48.286;8.484;2023-03-01T15:57:31;26.95;;;16.85;;
39738;SDS011;25422;48.286;8.484;2023-03-01T15:59:56;30.35;;;18.20;;
39738;SDS011;25422;48.286;8.484;2023-03-01T16:02:22;31.27;;;18.40;;
39738;SDS011;25422;48.286;8.484;2023-03-01T16:04:49;28.42;;;17.92;;
39738;SDS011;25422;48.286;8.484;2023-03-01T16:07:15;30.27;;;19.02;;
39738;SDS011;25422;48.286;8.484;2023-03-01T16:09:40;33.50;;;20.13;;
39738;SDS011;25422;48.286;8.484;2023-03-01T16:12:08;29.10;;;18.10;;
39738;SDS011;25422;48.286;8.484;2023-03-01T16:14:39;31.48;;;19.20;;
39738;SDS011;25422;48.286;8.484;2023-03-01T16:17:05;35.17;;;18.95;;
39738;SDS011;25422;48.286;8.484;2023-03-01T16:19:30;35.97;;;21.02;;
39738;SDS011;25422;48.286;8.484;2023-03-01T16:21:56;31.65;;;18.98;;
39738;SDS011;25422;48.286;8.484;2023-03-01T16:24:21;31.33;;;18.00;;
39738;SDS011;25422;48.286;8.484;2023-03-01T16:26:46;32.05;;;18.63;;
39738;SDS011;25422;48.286;8.484;2023-03-01T16:29:12;30.27;;;18.15;;
39738;SDS011;25422;48.286;8.484;2023-03-01T16:31:37;34.35;;;21.45;;
39738;SDS011;25422;48.286;8.484;2023-03-01T16:34:03;34.80;;;20.88;;
39738;SDS011;25422;48.286;8.484;2023-03-01T16:36:28;79.53;;;41.78;;